Time;durP1;ratioP1;P1;durP2;ratioP2;P2;SDS_P1;SDS_P2;PMS_P1;PMS_P2;Temp;Humidity;BMP_temperature;BMP_pressure;BME280_temperature;BME280_humidity;BME280_pressure;Samples;Min_cycle;Max_cycle;Signal;HPM_P1;HPM_P2
2023/03/13 00:00:54;;;;;;;;;;;;;;;;;;5049072;28;4577;-56
2023/03/13 00:03:19;;;;;;;;;;;;;;;;;;5044631;28;1209;-57
2023/03/13 00:05:44;;;;;;;;;;;;;;;;;;5049227;28;4647;-56
2023/03/13 00:08:10;;;;;;;;;;;;;;;;;;5049351;28;4450;-57
2023/03/13 00:10:36;;;;;;;;;;;;;;;;;;5045175;28;4988;-57
2023/03/13 00:13:01;;;;;;;;;;;;;;;;;;5043615;28;4490;-55
2023/03/13 00:15:26;;;;;;;;;;;;;;;;;;5044927;28;1914;-54
2023/03/13 00:17:51;;;;;;;;;;;;;;;;;;5043342;28;4812;-56
2023/03/13 00:20:17;;;;;;;;;;;;;;;;;;5048745;28;4482;-56
2023/03/13 00:22:42;;;;;;;;;;;;;;;;;;5049204;28;4784;-57
2023/03/13 00:25:07;;;;;;;;;;;;;;;;;;5048951;28;4472;-56
2023/03/13 00:27:33;;;;;;;;;;;;;;;;;;5044908;28;3598;-56
2023/03/13 00:29:58;;;;;;;;;;;;;;;;;;5046059;28;4487;-56
2023/03/13 00:32:24;;;;;;;;;;;;;;;;;;5044218;28;5059;-57
2023/03/13 00:34:49;;;;;;;;;;;;;;;;;;5039514;28;4531;-57
2023/03/13 00:37:14;;;;;;;;;;;;;;;;;;5049111;28;4474;-57
2023/03/13 00:39:39;;;;;;;;;;;;;;;;;;5044498;28;1345;-54
2023/03/13 00:42:05;;;;;;;;;;;;;;;;;;5033836;28;4386;-57
2023/03/13 00:44:30;;;;;;;;;;;;;;;;;;5035963;28;4565;-52
2023/03/13 00:46:55;;;;;;;;;;;;;;;;;;5047015;28;5187;-58
2023/03/13 00:49:20;;;;;;;;;;;;;;;;;;5045337;28;4597;-57
2023/03/13 00:51:46;;;;;;;;;;;;;;;;;;5047240;28;5070;-57
2023/03/13 00:54:11;;;;;;;;;;;;;;;;;;5047966;28;1909;-57
2023/03/13 00:56:36;;;;;;;;;;;;;;;;;;5047080;28;4609;-57
2023/03/13 00:59:01;;;;;;;;;;;;;;;;;;5042327;28;5146;-56
2023/03/13 01:01:31;;;;;;;;;;;;;;;;;;5046220;28;4622;-57
2023/03/13 01:03:57;;;;;;;;;;;;;;;;;;5040643;28;4547;-57
2023/03/13 01:06:23;;;;;;;;;;;;;;;;;;5048597;28;1329;-57
2023/03/13 01:08:48;;;;;;;;;;;;;;;;;;5039577;28;4624;-56
2023/03/13 01:11:14;;;;;;;;;;;;;;;;;;5046609;28;4462;-57
2023/03/13 01:13:40;;;;;;;;;;;;;;;;;;5044857;28;4617;-54
2023/03/13 01:16:09;;;;;;;;;;;;;;;;;;5047964;28;5016;-57
2023/03/13 01:18:34;;;;;;;;;;;;;;;;;;5045775;28;4650;-57
2023/03/13 01:21:00;;;;;;;;;;;;;;;;;;5045961;28;4943;-57
2023/03/13 01:23:25;;;;;;;;;;;;;;;;;;5044713;28;5139;-57
2023/03/13 01:25:50;;;;;;;;;;;;;;;;;;5046781;28;5237;-56
2023/03/13 01:28:16;;;;;;;;;;;;;;;;;;5044492;28;4700;-55
2023/03/13 01:30:41;;;;;;;;;;;;;;;;;;5044789;28;4573;-56
2023/03/13 01:33:06;;;;;;;;;;;;;;;;;;5045516;28;1274;-58
2023/03/13 01:35:31;;;;;;;;;;;;;;;;;;5039015;28;4853;-57
2023/03/13 01:37:57;;;;;;;;;;;;;;;;;;5038185;28;4484;-57
2023/03/13 01:40:22;;;;;;;;;;;;;;;;;;5037403;28;4520;-56
2023/03/13 01:42:51;;;;;;;;;;;;;;;;;;5044679;28;5640;-56
2023/03/13 01:45:35;;;;;;;;;;;;;;;;;;5041210;28;3328;-57
2023/03/13 01:48:00;;;;;;;;;;;;;;;;;;5040896;28;4627;-57
2023/03/13 01:50:25;;;;;;;;;;;;;;;;;;5041213;28;4509;-57
2023/03/13 01:52:51;;;;;;;;;;;;;;;;;;5040671;28;4945;-56
2023/03/13 01:55:16;;;;;;;;;;;;;;;;;;5032394;28;4519;-57
2023/03/13 01:57:42;;;;;;;;;;;;;;;;;;5041836;28;5054;-54
2023/03/13 02:00:15;;;;;;;;;;;;;;;;;;5026329;28;1657;-57
2023/03/13 02:02:41;;;;;;;;;;;;;;;;;;5039295;28;4448;-53
2023/03/13 02:05:07;;;;;;;;;;;;;;;;;;5036893;28;4704;-57
2023/03/13 02:07:33;;;;;;;;;;;;;;;;;;5047183;28;4466;-58
2023/03/13 02:09:59;;;;;;;;;;;;;;;;;;5041771;28;4720;-54
2023/03/13 02:12:31;;;;;;;;;;;;;;;;;;5039261;28;1121;-54
2023/03/13 02:14:57;;;;;;;;;;;;;;;;;;5045210;28;4510;-57
2023/03/13 02:17:22;;;;;;;;;;;;;;;;;;5076940;28;4693;-57
2023/03/13 02:19:48;;;;;;;;;;;;;;;;;;5039987;28;4956;-56
2023/03/13 02:22:23;;;;;;;;;;;;;;;;;;5046747;28;4464;-57
2023/03/13 02:24:54;;;;;;;;;;;;;;;;;;5040539;28;4463;-56
2023/03/13 02:27:19;;;;;;;;;;;;;;;;;;5041822;28;3547;-56
2023/03/13 02:29:45;;;;;;;;;;;;;;;;;;5043003;28;4496;-57
2023/03/13 02:32:10;;;;;;;;;;;;;;;;;;5075521;28;4568;-57
2023/03/13 02:34:36;;;;;;;;;;;;;;;;;;5070659;28;4521;-57
2023/03/13 02:37:01;;;;;;;;;;;;;;;;;;5049223;28;4555;-57
2023/03/13 02:39:27;;;;;;;;;;;;;;;;;;5043148;28;3243;-56
2023/03/13 02:41:52;;;;;;;;;;;;;;;;;;5043532;28;4866;-54
2023/03/13 02:44:17;;;;;;;;;;;;;;;;;;5038923;28;4529;-57
2023/03/13 02:46:46;;;;;;;;;;;;;;;;;;5039868;28;5010;-55
2023/03/13 02:49:19;;;;;;;;;;;;;;;;;;5038476;28;4729;-54
2023/03/13 02:51:45;;;;;;;;;;;;;;;;;;5039364;28;5023;-55
2023/03/13 02:54:15;;;;;;;;;;;;;;;;;;5048332;28;3369;-56
2023/03/13 02:56:40;;;;;;;;;;;;;;;;;;5046506;28;4458;-55
2023/03/13 02:59:06;;;;;;;;;;;;;;;;;;5037123;28;4496;-56
2023/03/13 03:01:31;;;;;;;;;;;;;;;;;;5044053;28;5259;-57
2023/03/13 03:03:57;;;;;;;;;;;;;;;;;;5044898;28;5536;-58
2023/03/13 03:06:22;;;;;;;;;;;;;;;;;;5045132;28;3496;-56
2023/03/13 03:08:47;;;;;;;;;;;;;;;;;;5048920;28;4553;-58
2023/03/13 03:11:13;;;;;;;;;;;;;;;;;;5047209;28;4662;-56
2023/03/13 03:13:38;;;;;;;;;;;;;;;;;;5044006;28;4703;-56
2023/03/13 03:16:10;;;;;;;;;;;;;;;;;;5038227;28;4488;-55
2023/03/13 03:18:35;;;;;;;;;;;;;;;;;;5042600;28;4712;-57
2023/03/13 03:21:01;;;;;;;;;;;;;;;;;;5046033;28;4615;-55
2023/03/13 03:23:26;;;;;;;;;;;;;;;;;;5047289;28;4954;-57
2023/03/13 03:25:51;;;;;;;;;;;;;;;;;;5048359;28;4641;-57
2023/03/13 03:28:17;;;;;;;;;;;;;;;;;;5041822;28;4946;-57
2023/03/13 03:30:42;;;;;;;;;;;;;;;;;;5045412;28;5108;-57
2023/03/13 03:33:07;;;;;;;;;;;;;;;;;;5044720;28;3397;-57
2023/03/13 03:35:37;;;;;;;;;;;;;;;;;;5048121;28;4893;-55
2023/03/13 03:38:02;;;;;;;;;;;;;;;;;;5043189;28;4462;-56
2023/03/13 03:40:29;;;;;;;;;;;;;;;;;;5044891;28;5958;-54
2023/03/13 03:42:54;;;;;;;;;;;;;;;;;;5046772;28;5294;-55
2023/03/13 03:45:19;;;;;;;;;;;;;;;;;;5040773;28;3559;-56
2023/03/13 03:47:44;;;;;;;;;;;;;;;;;;5047507;28;4643;-56
2023/03/13 03:50:10;;;;;;;;;;;;;;;;;;5047511;28;4461;-57
2023/03/13 03:52:35;;;;;;;;;;;;;;;;;;5044220;28;4455;-57
2023/03/13 03:55:00;;;;;;;;;;;;;;;;;;5047147;28;4815;-57
2023/03/13 03:57:26;;;;;;;;;;;;;;;;;;5043081;28;1095;-56
2023/03/13 03:59:51;;;;;;;;;;;;;;;;;;5041658;28;4739;-57
2023/03/13 04:02:16;;;;;;;;;;;;;;;;;;5042543;28;4781;-56
2023/03/13 04:04:41;;;;;;;;;;;;;;;;;;5045667;28;4519;-56
2023/03/13 04:07:07;;;;;;;;;;;;;;;;;;5040487;28;4876;-56
2023/03/13 04:09:32;;;;;;;;;;;;;;;;;;5037200;28;3298;-56
2023/03/13 04:11:57;;;;;;;;;;;;;;;;;;5039906;28;4784;-54
2023/03/13 04:14:22;;;;;;;;;;;;;;;;;;5042664;28;4892;-57
2023/03/13 04:16:48;;;;;;;;;;;;;;;;;;5042915;28;4462;-56
2023/03/13 04:19:13;;;;;;;;;;;;;;;;;;5044893;28;4776;-54
2023/03/13 04:21:38;;;;;;;;;;;;;;;;;;5044914;28;3524;-57
2023/03/13 04:24:03;;;;;;;;;;;;;;;;;;5045974;28;4563;-57
2023/03/13 04:26:29;;;;;;;;;;;;;;;;;;5042864;28;4822;-56
2023/03/13 04:28:54;;;;;;;;;;;;;;;;;;5028964;28;5816;-55
2023/03/13 04:31:19;;;;;;;;;;;;;;;;;;5043156;28;4927;-57
2023/03/13 04:33:45;;;;;;;;;;;;;;;;;;5040680;28;4761;-55
2023/03/13 04:36:10;;;;;;;;;;;;;;;;;;5040014;28;3637;-56
2023/03/13 04:38:35;;;;;;;;;;;;;;;;;;5040126;28;4635;-57
2023/03/13 04:41:00;;;;;;;;;;;;;;;;;;5042400;28;5176;-56
2023/03/13 04:43:26;;;;;;;;;;;;;;;;;;5043273;28;4543;-57
2023/03/13 04:45:53;;;;;;;;;;;;;;;;;;5045781;28;4882;-57
2023/03/13 04:48:19;;;;;;;;;;;;;;;;;;5047838;28;3508;-56
2023/03/13 04:50:44;;;;;;;;;;;;;;;;;;5044543;28;4884;-55
2023/03/13 04:53:09;;;;;;;;;;;;;;;;;;5040632;28;4458;-57
2023/03/13 04:55:34;;;;;;;;;;;;;;;;;;5016797;28;5145;-56
2023/03/13 04:58:00;;;;;;;;;;;;;;;;;;5039481;28;4507;-56
2023/03/13 05:00:25;;;;;;;;;;;;;;;;;;5048845;28;1156;-56
2023/03/13 05:02:50;;;;;;;;;;;;;;;;;;5045754;28;4490;-57
2023/03/13 05:05:16;;;;;;;;;;;;;;;;;;5047603;28;4498;-57
2023/03/13 05:07:41;;;;;;;;;;;;;;;;;;5042318;28;4455;-56
2023/03/13 05:10:06;;;;;;;;;;;;;;;;;;5047956;28;4513;-57
2023/03/13 05:12:31;;;;;;;;;;;;;;;;;;5035516;28;1395;-57
2023/03/13 05:14:57;;;;;;;;;;;;;;;;;;5043393;28;5101;-56
2023/03/13 05:17:22;;;;;;;;;;;;;;;;;;5045526;28;4501;-56
2023/03/13 05:19:47;;;;;;;;;;;;;;;;;;5044748;28;5062;-57
2023/03/13 05:22:12;;;;;;;;;;;;;;;;;;5044965;28;4669;-57
2023/03/13 05:24:38;;;;;;;;;;;;;;;;;;5046533;28;3373;-56
2023/03/13 05:27:03;;;;;;;;;;;;;;;;;;5039587;28;4566;-57
2023/03/13 05:29:28;;;;;;;;;;;;;;;;;;5046719;28;4816;-56
2023/03/13 05:31:54;;;;;;;;;;;;;;;;;;5038449;28;4459;-57
2023/03/13 05:34:19;;;;;;;;;;;;;;;;;;5043577;28;4860;-56
2023/03/13 05:36:44;;;;;;;;;;;;;;;;;;5035099;28;4496;-53
2023/03/13 05:39:09;;;;;;;;;;;;;;;;;;5041760;28;3500;-55
2023/03/13 05:41:35;;;;;;;;;;;;;;;;;;5041216;28;4611;-56
2023/03/13 05:44:00;;;;;;;;;;;;;;;;;;5039448;28;4551;-57
2023/03/13 05:46:25;;;;;;;;;;;;;;;;;;5045552;28;4707;-57
2023/03/13 05:48:51;;;;;;;;;;;;;;;;;;5046810;28;4477;-56
2023/03/13 05:51:16;;;;;;;;;;;;;;;;;;5040450;28;3500;-56
2023/03/13 05:53:42;;;;;;;;;;;;;;;;;;5041196;28;4665;-56
2023/03/13 05:56:07;;;;;;;;;;;;;;;;;;5042703;28;4775;-56
2023/03/13 05:58:32;;;;;;;;;;;;;;;;;;5041943;28;4577;-57
2023/03/13 06:00:58;;;;;;;;;;;;;;;;;;5046574;28;5010;-57
2023/03/13 06:03:23;;;;;;;;;;;;;;;;;;5041445;28;1116;-57
2023/03/13 06:05:48;;;;;;;;;;;;;;;;;;5033900;28;4709;-57
2023/03/13 06:08:13;;;;;;;;;;;;;;;;;;5035439;28;5153;-57
2023/03/13 06:10:39;;;;;;;;;;;;;;;;;;5044845;28;4836;-56
2023/03/13 06:13:04;;;;;;;;;;;;;;;;;;5046534;28;4483;-56
2023/03/13 06:15:29;;;;;;;;;;;;;;;;;;5045774;28;1969;-57
2023/03/13 06:17:54;;;;;;;;;;;;;;;;;;5043537;28;4849;-55
2023/03/13 06:20:21;;;;;;;;;;;;;;;;;;5042461;28;4519;-57
2023/03/13 06:22:46;;;;;;;;;;;;;;;;;;5045415;28;4538;-57
2023/03/13 06:25:11;;;;;;;;;;;;;;;;;;5041179;28;5094;-57
2023/03/13 06:27:37;;;;;;;;;;;;;;;;;;5049435;28;1164;-57
2023/03/13 06:30:02;;;;;;;;;;;;;;;;;;5050277;28;4398;-55
2023/03/13 06:32:27;;;;;;;;;;;;;;;;;;5037794;28;4492;-56
2023/03/13 06:34:53;;;;;;;;;;;;;;;;;;5043793;28;5067;-56
2023/03/13 06:37:18;;;;;;;;;;;;;;;;;;5039953;28;5103;-55
2023/03/13 06:39:43;;;;;;;;;;;;;;;;;;5047047;28;4470;-58
2023/03/13 06:42:08;;;;;;;;;;;;;;;;;;5039224;28;3635;-57
2023/03/13 06:44:34;;;;;;;;;;;;;;;;;;5044026;28;4839;-56
2023/03/13 06:46:59;;;;;;;;;;;;;;;;;;5040595;28;4951;-59
2023/03/13 06:49:24;;;;;;;;;;;;;;;;;;5052915;28;5082;-58
2023/03/13 06:51:49;;;;;;;;;;;;;;;;;;5050386;28;4942;-59
2023/03/13 06:54:15;;;;;;;;;;;;;;;;;;5048350;28;3290;-58
2023/03/13 06:56:40;;;;;;;;;;;;;;;;;;5050223;28;4610;-58
2023/03/13 06:59:06;;;;;;;;;;;;;;;;;;5077676;28;4506;-58
2023/03/13 07:01:31;;;;;;;;;;;;;;;;;;5049942;28;4976;-58
2023/03/13 07:03:56;;;;;;;;;;;;;;;;;;5049614;28;4694;-58
2023/03/13 07:06:21;;;;;;;;;;;;;;;;;;5049425;28;3183;-58
2023/03/13 07:08:47;;;;;;;;;;;;;;;;;;5045500;28;4698;-58
2023/03/13 07:11:13;;;;;;;;;;;;;;;;;;5042157;28;4624;-58
2023/03/13 07:13:38;;;;;;;;;;;;;;;;;;5042320;28;4482;-58
2023/03/13 07:16:04;;;;;;;;;;;;;;;;;;5047352;28;4556;-58
2023/03/13 07:18:29;;;;;;;;;;;;;;;;;;5046382;28;4687;-58
2023/03/13 07:20:55;;;;;;;;;;;;;;;;;;5047668;28;4695;-58
2023/03/13 07:23:21;;;;;;;;;;;;;;;;;;5045542;28;4598;-59
2023/03/13 07:25:56;;;;;;;;;;;;;;;;;;5046191;28;5183;-58
2023/03/13 07:28:22;;;;;;;;;;;;;;;;;;5044397;28;5167;-58
2023/03/13 07:30:48;;;;;;;;;;;;;;;;;;5040941;28;4714;-58
2023/03/13 07:33:13;;;;;;;;;;;;;;;;;;5045955;28;1113;-58
2023/03/13 07:35:38;;;;;;;;;;;;;;;;;;5038414;28;4509;-57
2023/03/13 07:38:03;;;;;;;;;;;;;;;;;;5049444;28;4470;-57
2023/03/13 07:40:29;;;;;;;;;;;;;;;;;;5049242;28;5092;-58
2023/03/13 07:42:54;;;;;;;;;;;;;;;;;;5049536;28;4747;-58
2023/03/13 07:45:19;;;;;;;;;;;;;;;;;;5044903;28;1634;-57
2023/03/13 07:47:44;;;;;;;;;;;;;;;;;;5049289;28;4402;-58
2023/03/13 07:50:11;;;;;;;;;;;;;;;;;;5046610;28;5680;-58
2023/03/13 07:52:36;;;;;;;;;;;;;;;;;;5048319;28;4522;-59
2023/03/13 07:55:01;;;;;;;;;;;;;;;;;;5048891;28;4824;-58
2023/03/13 07:57:27;;;;;;;;;;;;;;;;;;5045913;28;1194;-58
2023/03/13 07:59:52;;;;;;;;;;;;;;;;;;5039636;28;5061;-57
2023/03/13 08:02:17;;;;;;;;;;;;;;;;;;5036931;28;5058;-58
2023/03/13 08:04:42;;;;;;;;;;;;;;;;;;5047756;28;5057;-57
2023/03/13 08:07:08;;;;;;;;;;;;;;;;;;5040857;28;5205;-58
2023/03/13 08:09:33;;;;;;;;;;;;;;;;;;5048130;28;3190;-58
2023/03/13 08:11:59;;;;;;;;;;;;;;;;;;5039390;28;4451;-58
2023/03/13 08:14:24;;;;;;;;;;;;;;;;;;5043956;28;4694;-58
2023/03/13 08:16:49;;;;;;;;;;;;;;;;;;5048246;28;5002;-58
2023/03/13 08:19:14;;;;;;;;;;;;;;;;;;5045848;28;4713;-58
2023/03/13 08:21:40;;;;;;;;;;;;;;;;;;5047311;28;3320;-58
2023/03/13 08:24:05;;;;;;;;;;;;;;;;;;5046185;28;4604;-58
2023/03/13 08:26:31;;;;;;;;;;;;;;;;;;5046556;28;4908;-58
2023/03/13 08:28:57;;;;;;;;;;;;;;;;;;5045435;28;4908;-58
2023/03/13 08:31:23;;;;;;;;;;;;;;;;;;5048239;28;5045;-58
2023/03/13 08:33:48;;;;;;;;;;;;;;;;;;5047930;28;5105;-58
2023/03/13 08:36:24;;;;;;;;;;;;;;;;;;5049073;28;1100;-59
2023/03/13 08:38:49;;;;;;;;;;;;;;;;;;5046557;28;4581;-59
2023/03/13 08:41:19;;;;;;;;;;;;;;;;;;5047189;28;4561;-58
2023/03/13 08:43:44;;;;;;;;;;;;;;;;;;5031940;28;4652;-58
2023/03/13 08:46:09;;;;;;;;;;;;;;;;;;5042725;28;4386;-58
2023/03/13 08:48:35;;;;;;;;;;;;;;;;;;5048443;28;1182;-58
2023/03/13 08:51:04;;;;;;;;;;;;;;;;;;5046201;28;5096;-58
2023/03/13 08:53:29;;;;;;;;;;;;;;;;;;5042301;28;5593;-58
2023/03/13 08:55:54;;;;;;;;;;;;;;;;;;5038120;28;4480;-58
2023/03/13 08:58:20;;;;;;;;;;;;;;;;;;5031474;28;4575;-59
2023/03/13 09:00:45;;;;;;;;;;;;;;;;;;5044056;28;5282;-58
2023/03/13 09:03:10;;;;;;;;;;;;;;;;;;5044189;28;3052;-58
2023/03/13 09:05:39;;;;;;;;;;;;;;;;;;5036138;28;4684;-58
2023/03/13 09:08:04;;;;;;;;;;;;;;;;;;5043012;28;4695;-58
2023/03/13 09:10:31;;;;;;;;;;;;;;;;;;5041791;28;5057;-58
2023/03/13 09:12:56;;;;;;;;;;;;;;;;;;5038883;28;4979;-59
2023/03/13 09:15:22;;;;;;;;;;;;;;;;;;5043502;28;1918;-58
2023/03/13 09:17:47;;;;;;;;;;;;;;;;;;5043670;28;4908;-58
2023/03/13 09:20:12;;;;;;;;;;;;;;;;;;5043970;28;5514;-58
2023/03/13 09:22:37;;;;;;;;;;;;;;;;;;5042265;28;4887;-59
2023/03/13 09:25:03;;;;;;;;;;;;;;;;;;5038839;28;4530;-58
2023/03/13 09:27:28;;;;;;;;;;;;;;;;;;5033135;28;3563;-59
2023/03/13 09:29:53;;;;;;;;;;;;;;;;;;5040476;28;4493;-57
2023/03/13 09:32:19;;;;;;;;;;;;;;;;;;5045655;28;4650;-57
2023/03/13 09:34:44;;;;;;;;;;;;;;;;;;5044978;28;4480;-57
2023/03/13 09:37:10;;;;;;;;;;;;;;;;;;5042505;28;4750;-60
2023/03/13 09:39:35;;;;;;;;;;;;;;;;;;5043483;28;1237;-58
2023/03/13 09:42:14;;;;;;;;;;;;;;;;;;5041559;28;4409;-57
2023/03/13 09:44:41;;;;;;;;;;;;;;;;;;5066306;28;4426;-59
2023/03/13 09:47:10;;;;;;;;;;;;;;;;;;5045673;28;5125;-59
2023/03/13 09:49:38;;;;;;;;;;;;;;;;;;5042487;28;4554;-59
2023/03/13 09:52:12;;;;;;;;;;;;;;;;;;5043032;28;5510;-59
2023/03/13 09:54:49;;;;;;;;;;;;;;;;;;5044199;28;1977;-57
2023/03/13 09:57:24;;;;;;;;;;;;;;;;;;5044426;28;4592;-59
2023/03/13 10:00:11;;;;;;;;;;;;;;;;;;5038280;28;4934;-59
2023/03/13 10:02:36;;;;;;;;;;;;;;;;;;5041965;28;4458;-59
2023/03/13 10:05:07;;;;;;;;;;;;;;;;;;5046146;28;4788;-59
2023/03/13 10:07:32;;;;;;;;;;;;;;;;;;5043700;28;4830;-58
2023/03/13 10:09:59;;;;;;;;;;;;;;;;;;5044861;28;4499;-59
2023/03/13 10:12:26;;;;;;;;;;;;;;;;;;5044031;28;2088;-59
2023/03/13 10:15:27;;;;;;;;;;;;;;;;;;5039098;28;4637;-59
2023/03/13 10:17:52;;;;;;;;;;;;;;;;;;5043137;28;4769;-59
2023/03/13 10:20:33;;;;;;;;;;;;;;;;;;5033028;28;5235;-59
2023/03/13 10:22:59;;;;;;;;;;;;;;;;;;5041683;28;5802;-58
2023/03/13 10:25:29;;;;;;;;;;;;;;;;;;5041016;28;5016;-59
2023/03/13 10:27:54;;;;;;;;;;;;;;;;;;5076370;28;4484;-59
2023/03/13 10:30:23;;;;;;;;;;;;;;;;;;5046234;28;1305;-58
2023/03/13 10:32:49;;;;;;;;;;;;;;;;;;5042981;28;5046;-59
2023/03/13 10:35:24;;;;;;;;;;;;;;;;;;5030633;28;4448;-58
2023/03/13 10:37:49;;;;;;;;;;;;;;;;;;5046273;28;4571;-58
2023/03/13 10:40:22;;;;;;;;;;;;;;;;;;5043492;28;4487;-59
2023/03/13 10:42:47;;;;;;;;;;;;;;;;;;5074897;28;4949;-58
2023/03/13 10:45:16;;;;;;;;;;;;;;;;;;5042656;28;1441;-59
2023/03/13 10:47:41;;;;;;;;;;;;;;;;;;5037873;28;4625;-59
2023/03/13 10:50:07;;;;;;;;;;;;;;;;;;5034936;28;4471;-59
2023/03/13 10:52:33;;;;;;;;;;;;;;;;;;5021720;28;4526;-58
2023/03/13 10:54:59;;;;;;;;;;;;;;;;;;5043537;28;5163;-59
2023/03/13 10:57:25;;;;;;;;;;;;;;;;;;5042848;28;1093;-58
2023/03/13 10:59:50;;;;;;;;;;;;;;;;;;5045398;28;4602;-57
2023/03/13 11:02:42;;;;;;;;;;;;;;;;;;5044641;28;4627;-58
2023/03/13 11:05:27;;;;;;;;;;;;;;;;;;5038764;28;4485;-57
2023/03/13 11:07:52;;;;;;;;;;;;;;;;;;5036868;28;4448;-60
2023/03/13 11:10:31;;;;;;;;;;;;;;;;;;5039494;28;4960;-58
2023/03/13 11:12:56;;;;;;;;;;;;;;;;;;5041767;28;4538;-57
2023/03/13 11:15:25;;;;;;;;;;;;;;;;;;5046783;28;1985;-57
2023/03/13 11:17:51;;;;;;;;;;;;;;;;;;5043200;28;4753;-58
2023/03/13 11:20:32;;;;;;;;;;;;;;;;;;5040130;28;5070;-59
2023/03/13 11:23:09;;;;;;;;;;;;;;;;;;5049467;28;5022;-59
2023/03/13 11:25:54;;;;;;;;;;;;;;;;;;5040917;28;4482;-60
2023/03/13 11:28:20;;;;;;;;;;;;;;;;;;5045590;28;4993;-59
2023/03/13 11:30:51;;;;;;;;;;;;;;;;;;5041935;28;4585;-59
2023/03/13 11:33:25;;;;;;;;;;;;;;;;;;5048056;28;1325;-59
2023/03/13 11:35:57;;;;;;;;;;;;;;;;;;5047046;28;4819;-59
2023/03/13 11:38:35;;;;;;;;;;;;;;;;;;5038385;28;5036;-59
2023/03/13 11:41:04;;;;;;;;;;;;;;;;;;5047959;28;4487;-59
2023/03/13 11:43:31;;;;;;;;;;;;;;;;;;5047392;28;4666;-59
2023/03/13 11:46:03;;;;;;;;;;;;;;;;;;5039400;28;4620;-59
2023/03/13 11:48:38;;;;;;;;;;;;;;;;;;5049095;28;1122;-59
2023/03/13 11:51:16;;;;;;;;;;;;;;;;;;5079146;28;4413;-59
2023/03/13 11:53:57;;;;;;;;;;;;;;;;;;5043860;28;4981;-59
2023/03/13 11:56:42;;;;;;;;;;;;;;;;;;5078356;28;4659;-58
2023/03/13 11:59:30;;;;;;;;;;;;;;;;;;5045085;28;4742;-58
2023/03/13 12:02:19;;;;;;;;;;;;;;;;;;5040073;28;5044;-59
2023/03/13 12:04:46;;;;;;;;;;;;;;;;;;5040627;28;4460;-58
2023/03/13 12:07:24;;;;;;;;;;;;;;;;;;5070723;28;4463;-58
2023/03/13 12:09:49;;;;;;;;;;;;;;;;;;5081002;28;4833;-58
2023/03/13 12:12:20;;;;;;;;;;;;;;;;;;5042613;28;3461;-58
2023/03/13 12:14:51;;;;;;;;;;;;;;;;;;5042885;28;4559;-59
2023/03/13 12:17:23;;;;;;;;;;;;;;;;;;5047165;28;4605;-59
2023/03/13 12:19:48;;;;;;;;;;;;;;;;;;5044305;28;4788;-59
2023/03/13 12:22:16;;;;;;;;;;;;;;;;;;5046813;28;4693;-59
2023/03/13 12:24:54;;;;;;;;;;;;;;;;;;5076979;28;4582;-59
2023/03/13 12:27:20;;;;;;;;;;;;;;;;;;5073452;28;3211;-59
2023/03/13 12:29:45;;;;;;;;;;;;;;;;;;5039796;28;5352;-58
2023/03/13 12:32:10;;;;;;;;;;;;;;;;;;5040316;28;4458;-59
2023/03/13 12:34:45;;;;;;;;;;;;;;;;;;5039629;28;4633;-59
2023/03/13 12:37:29;;;;;;;;;;;;;;;;;;5046792;28;4798;-59
2023/03/13 12:39:59;;;;;;;;;;;;;;;;;;5037796;28;4959;-59
2023/03/13 12:42:29;;;;;;;;;;;;;;;;;;5033441;28;3233;-59
2023/03/13 12:44:55;;;;;;;;;;;;;;;;;;5041050;28;4446;-59
2023/03/13 12:47:49;;;;;;;;;;;;;;;;;;5039242;28;5014;-58
2023/03/13 12:50:47;;;;;;;;;;;;;;;;;;5033483;28;4845;-58
2023/03/13 12:53:38;;;;;;;;;;;;;;;;;;5045225;28;5014;-59
2023/03/13 12:56:03;;;;;;;;;;;;;;;;;;5036953;28;4691;-59
2023/03/13 12:58:30;;;;;;;;;;;;;;;;;;5042788;28;4633;-58
2023/03/13 13:00:55;;;;;;;;;;;;;;;;;;5072421;28;4489;-58
2023/03/13 13:03:34;;;;;;;;;;;;;;;;;;5039642;28;3533;-58
2023/03/13 13:06:06;;;;;;;;;;;;;;;;;;5039529;28;4408;-58
2023/03/13 13:08:38;;;;;;;;;;;;;;;;;;5044601;28;4435;-58
2023/03/13 13:11:23;;;;;;;;;;;;;;;;;;5034834;28;5038;-58
2023/03/13 13:13:48;;;;;;;;;;;;;;;;;;5041585;28;4606;-58
2023/03/13 13:16:15;;;;;;;;;;;;;;;;;;5044617;28;4565;-57
2023/03/13 13:18:41;;;;;;;;;;;;;;;;;;5041286;28;4711;-56
2023/03/13 13:21:06;;;;;;;;;;;;;;;;;;5041210;28;1147;-58
2023/03/13 13:23:38;;;;;;;;;;;;;;;;;;5039656;28;4527;-58
2023/03/13 13:26:21;;;;;;;;;;;;;;;;;;5031838;28;5215;-58
2023/03/13 13:28:47;;;;;;;;;;;;;;;;;;5035707;28;4454;-58
2023/03/13 13:31:31;;;;;;;;;;;;;;;;;;5043598;28;4519;-59
2023/03/13 13:33:56;;;;;;;;;;;;;;;;;;5047353;28;4586;-59
2023/03/13 13:36:25;;;;;;;;;;;;;;;;;;5032999;28;1930;-59
2023/03/13 13:38:50;;;;;;;;;;;;;;;;;;5040772;28;5004;-58
2023/03/13 13:41:16;;;;;;;;;;;;;;;;;;5044958;28;5000;-58
2023/03/13 13:43:45;;;;;;;;;;;;;;;;;;5042094;28;4835;-59
2023/03/13 13:46:29;;;;;;;;;;;;;;;;;;5042194;28;5312;-59
2023/03/13 13:49:03;;;;;;;;;;;;;;;;;;5041803;28;4672;-59
2023/03/13 13:51:28;;;;;;;;;;;;;;;;;;5043192;28;2068;-59
2023/03/13 13:53:54;;;;;;;;;;;;;;;;;;5036932;28;4800;-58
2023/03/13 13:56:37;;;;;;;;;;;;;;;;;;5046720;28;5063;-58
2023/03/13 13:59:20;;;;;;;;;;;;;;;;;;5043766;28;4443;-58
2023/03/13 14:01:49;;;;;;;;;;;;;;;;;;5040536;28;4428;-58
2023/03/13 14:04:23;;;;;;;;;;;;;;;;;;5044542;28;5384;-58
2023/03/13 14:06:48;;;;;;;;;;;;;;;;;;5040873;28;4485;-58
2023/03/13 14:09:33;;;;;;;;;;;;;;;;;;5047310;28;1094;-58
2023/03/13 14:11:59;;;;;;;;;;;;;;;;;;5032381;28;4969;-59
2023/03/13 14:14:24;;;;;;;;;;;;;;;;;;5043450;28;4460;-58
2023/03/13 14:16:50;;;;;;;;;;;;;;;;;;5046200;28;4544;-58
2023/03/13 14:19:22;;;;;;;;;;;;;;;;;;5026120;28;4811;-59
2023/03/13 14:21:48;;;;;;;;;;;;;;;;;;5046901;28;4924;-58
2023/03/13 14:24:13;;;;;;;;;;;;;;;;;;5038725;28;3065;-59
2023/03/13 14:26:40;;;;;;;;;;;;;;;;;;5045525;28;4972;-58
2023/03/13 14:29:06;;;;;;;;;;;;;;;;;;5042180;28;4931;-59
2023/03/13 14:31:32;;;;;;;;;;;;;;;;;;5045934;28;4638;-59
2023/03/13 14:33:58;;;;;;;;;;;;;;;;;;5040239;28;4638;-58
2023/03/13 14:36:23;;;;;;;;;;;;;;;;;;5038246;28;3587;-59
2023/03/13 14:38:53;;;;;;;;;;;;;;;;;;5045870;28;4809;-58
2023/03/13 14:41:40;;;;;;;;;;;;;;;;;;5043047;28;4869;-58
2023/03/13 14:44:06;;;;;;;;;;;;;;;;;;5041929;28;5061;-59
2023/03/13 14:46:32;;;;;;;;;;;;;;;;;;5044689;28;5322;-59
2023/03/13 14:49:04;;;;;;;;;;;;;;;;;;5044485;28;4531;-58
2023/03/13 14:51:29;;;;;;;;;;;;;;;;;;5070854;28;1225;-58
2023/03/13 14:53:55;;;;;;;;;;;;;;;;;;5050158;28;5139;-59
2023/03/13 14:56:20;;;;;;;;;;;;;;;;;;5046017;28;5145;-59
2023/03/13 14:58:47;;;;;;;;;;;;;;;;;;5046776;28;4479;-59
2023/03/13 15:01:12;;;;;;;;;;;;;;;;;;5038467;28;4969;-59
2023/03/13 15:03:41;;;;;;;;;;;;;;;;;;5043250;28;1136;-59
2023/03/13 15:06:10;;;;;;;;;;;;;;;;;;5034905;28;5096;-59
2023/03/13 15:08:36;;;;;;;;;;;;;;;;;;5050333;28;4423;-59
2023/03/13 15:11:01;;;;;;;;;;;;;;;;;;5046323;28;4485;-58
2023/03/13 15:13:32;;;;;;;;;;;;;;;;;;5036795;28;4472;-58
2023/03/13 15:15:58;;;;;;;;;;;;;;;;;;5036012;28;4505;-59
2023/03/13 15:18:24;;;;;;;;;;;;;;;;;;5036742;28;4609;-58
2023/03/13 15:20:50;;;;;;;;;;;;;;;;;;5044182;28;4660;-59
2023/03/13 15:23:15;;;;;;;;;;;;;;;;;;5060118;28;4569;-58
2023/03/13 15:25:40;;;;;;;;;;;;;;;;;;5056547;28;4622;-58
2023/03/13 15:28:18;;;;;;;;;;;;;;;;;;5046599;28;4434;-58
2023/03/13 15:30:44;;;;;;;;;;;;;;;;;;5035401;28;4708;-58
2023/03/13 15:33:11;;;;;;;;;;;;;;;;;;5037206;28;3626;-58
2023/03/13 15:35:37;;;;;;;;;;;;;;;;;;5047570;28;5649;-59
2023/03/13 15:38:02;;;;;;;;;;;;;;;;;;5043882;28;4883;-59
2023/03/13 15:40:29;;;;;;;;;;;;;;;;;;5046610;28;4939;-59
2023/03/13 15:42:54;;;;;;;;;;;;;;;;;;5048417;28;4682;-59
2023/03/13 15:45:20;;;;;;;;;;;;;;;;;;5040391;28;3223;-58
2023/03/13 15:47:46;;;;;;;;;;;;;;;;;;5049595;28;4526;-58
2023/03/13 15:50:12;;;;;;;;;;;;;;;;;;5040960;28;5044;-58
2023/03/13 15:52:37;;;;;;;;;;;;;;;;;;5045909;28;4489;-58
2023/03/13 15:55:03;;;;;;;;;;;;;;;;;;5048917;28;4824;-59
2023/03/13 15:57:29;;;;;;;;;;;;;;;;;;5045372;28;1088;-58
2023/03/13 15:59:54;;;;;;;;;;;;;;;;;;5034850;28;4975;-58
2023/03/13 16:02:20;;;;;;;;;;;;;;;;;;5047232;28;4490;-58
2023/03/13 16:04:46;;;;;;;;;;;;;;;;;;5048642;28;4933;-58
2023/03/13 16:07:12;;;;;;;;;;;;;;;;;;5061897;28;5178;-58
2023/03/13 16:09:38;;;;;;;;;;;;;;;;;;5042842;28;1155;-59
2023/03/13 16:12:03;;;;;;;;;;;;;;;;;;5040363;28;4868;-58
2023/03/13 16:14:28;;;;;;;;;;;;;;;;;;5040678;28;4558;-59
2023/03/13 16:16:54;;;;;;;;;;;;;;;;;;5041641;28;5086;-59
2023/03/13 16:19:19;;;;;;;;;;;;;;;;;;5045398;28;5026;-59
2023/03/13 16:21:47;;;;;;;;;;;;;;;;;;5047331;28;5133;-58
2023/03/13 16:24:12;;;;;;;;;;;;;;;;;;5045482;28;1292;-59
2023/03/13 16:26:38;;;;;;;;;;;;;;;;;;5037663;28;5073;-59
2023/03/13 16:29:03;;;;;;;;;;;;;;;;;;5042115;28;5212;-59
2023/03/13 16:31:29;;;;;;;;;;;;;;;;;;5048712;28;5185;-59
2023/03/13 16:33:55;;;;;;;;;;;;;;;;;;5038155;28;4652;-59
2023/03/13 16:36:21;;;;;;;;;;;;;;;;;;5044320;28;1898;-59
2023/03/13 16:38:47;;;;;;;;;;;;;;;;;;5063290;28;4692;-59
2023/03/13 16:41:15;;;;;;;;;;;;;;;;;;5042574;28;4922;-59
2023/03/13 16:43:41;;;;;;;;;;;;;;;;;;5044034;28;5014;-59
2023/03/13 16:46:13;;;;;;;;;;;;;;;;;;5040840;28;5186;-59
2023/03/13 16:48:38;;;;;;;;;;;;;;;;;;5046722;28;1022;-59
2023/03/13 16:51:03;;;;;;;;;;;;;;;;;;5040329;28;4468;-59
2023/03/13 16:53:28;;;;;;;;;;;;;;;;;;5036425;28;4421;-59
2023/03/13 16:55:54;;;;;;;;;;;;;;;;;;5041561;28;4528;-59
2023/03/13 16:58:19;;;;;;;;;;;;;;;;;;5039151;28;5097;-59
2023/03/13 17:00:45;;;;;;;;;;;;;;;;;;5042265;28;4684;-58
2023/03/13 17:03:10;;;;;;;;;;;;;;;;;;5040655;28;3919;-57
2023/03/13 17:05:35;;;;;;;;;;;;;;;;;;5045172;28;4469;-57